Time;durP1;ratioP1;P1;durP2;ratioP2;P2;SDS_P1;SDS_P2;PMS_P1;PMS_P2;Temp;Humidity;BMP_temperature;BMP_pressure;BME280_temperature;BME280_humidity;BME280_pressure;Samples;Min_cycle;Max_cycle;Signal;HPM_P1;HPM_P2
2023/10/21 00:00:37;;;;;;;;;;;14.00;70.60;;;9.44;100.00;93239.72;4949123;28;19921;-52
2023/10/21 00:03:03;;;;;;;;;;;13.90;70.50;;;9.41;100.00;93257.06;4949106;28;20102;-54
2023/10/21 00:05:29;;;;;;;;;;;13.90;70.60;;;9.37;100.00;93258.00;4950537;28;19965;-56
2023/10/21 00:07:54;;;;;;;;;;;13.90;70.60;;;9.35;100.00;93263.63;4948401;28;20325;-56
2023/10/21 00:10:20;;;;;;;;;;;13.80;70.60;;;9.29;100.00;93270.19;4948560;28;19925;-58
2023/10/21 00:12:46;;;;;;;;;;;13.80;70.60;;;9.23;100.00;93274.88;4949094;28;19971;-56
2023/10/21 00:15:12;;;;;;;;;;;13.70;70.60;;;9.14;100.00;93290.03;4949286;28;20001;-56
2023/10/21 00:17:38;;;;;;;;;;;13.70;70.60;;;9.11;100.00;93289.88;4949137;28;20012;-58
2023/10/21 00:20:06;;;;;;;;;;;13.70;70.60;;;9.08;100.00;93303.75;4952168;28;19949;-57
2023/10/21 00:22:33;;;;;;;;;;;13.60;70.60;;;9.02;100.00;93306.59;4948848;28;19917;-53
2023/10/21 00:25:00;;;;;;;;;;;13.60;70.70;;;8.97;100.00;93314.69;4952264;28;20000;-58
2023/10/21 00:27:26;;;;;;;;;;;13.50;70.60;;;8.91;100.00;93313.25;4949233;28;20197;-55
2023/10/21 00:29:52;;;;;;;;;;;13.50;70.60;;;8.94;100.00;93322.50;4950150;28;20432;-54
2023/10/21 00:32:18;;;;;;;;;;;13.40;70.70;;;8.93;100.00;93329.69;4950467;28;20000;-55
2023/10/21 00:34:44;;;;;;;;;;;13.40;70.70;;;8.94;100.00;93333.88;4953515;28;20334;-55
2023/10/21 00:37:10;;;;;;;;;;;13.40;70.90;;;8.93;100.00;93334.19;4947689;28;19940;-55
2023/10/21 00:39:37;;;;;;;;;;;13.40;71.00;;;8.92;100.00;93338.72;4948700;28;19946;-57
2023/10/21 00:42:05;;;;;;;;;;;13.40;71.10;;;8.90;100.00;93340.91;4947067;28;19933;-57
2023/10/21 00:44:31;;;;;;;;;;;13.40;71.10;;;8.85;100.00;93349.00;4948837;28;20408;-57
2023/10/21 00:46:59;;;;;;;;;;;13.40;71.00;;;8.86;100.00;93350.56;4952145;28;20054;-59
2023/10/21 00:49:29;;;;;;;;;;;13.40;71.10;;;8.98;100.00;93358.72;4948928;28;19925;-59
2023/10/21 00:51:56;;;;;;;;;;;13.40;71.10;;;9.20;100.00;93363.16;4950802;28;19913;-58
2023/10/21 00:54:25;;;;;;;;;;;13.50;71.60;;;9.36;100.00;93360.06;4950595;28;20409;-58
2023/10/21 00:56:51;;;;;;;;;;;13.60;72.60;;;9.51;100.00;93367.59;4950464;28;19918;-56
2023/10/21 00:59:18;;;;;;;;;;;13.60;72.10;;;9.56;100.00;93370.09;4950357;28;19918;-55
2023/10/21 01:01:45;;;;;;;;;;;13.80;72.30;;;9.60;100.00;93376.34;4950607;28;19917;-54
2023/10/21 01:04:13;;;;;;;;;;;13.80;72.20;;;9.66;100.00;93366.38;4949467;28;19945;-55
2023/10/21 01:06:40;;;;;;;;;;;13.90;72.20;;;9.72;100.00;93370.44;4949835;28;20316;-56
2023/10/21 01:09:06;;;;;;;;;;;14.00;72.10;;;9.76;100.00;93373.25;4950046;28;19918;-58
2023/10/21 01:11:32;;;;;;;;;;;14.10;72.10;;;9.79;100.00;93373.41;4948434;28;19909;-56
2023/10/21 01:13:58;;;;;;;;;;;14.10;72.00;;;9.81;100.00;93373.88;5008332;23;19978;-51
2023/10/21 01:16:24;;;;;;;;;;;14.20;71.90;;;9.82;100.00;93375.44;5005331;28;19985;-51
2023/10/21 01:18:50;;;;;;;;;;;14.20;71.60;;;9.85;100.00;93380.13;5003747;28;19921;-53
2023/10/21 01:21:15;;;;;;;;;;;14.30;71.70;;;9.89;100.00;93383.72;5005541;28;19992;-51
2023/10/21 01:23:41;;;;;;;;;;;14.40;71.70;;;9.98;100.00;93380.28;5017217;28;20406;-52
2023/10/21 01:26:08;;;;;;;;;;;14.40;71.70;;;10.12;100.00;93387.00;5022831;28;19908;-49
2023/10/21 01:28:34;;;;;;;;;;;14.50;71.80;;;10.23;100.00;93389.34;5023916;28;19958;-45
2023/10/21 01:31:01;;;;;;;;;;;14.60;72.10;;;10.31;100.00;93394.69;5023998;28;19920;-52
2023/10/21 01:33:27;;;;;;;;;;;14.70;72.10;;;10.41;100.00;93398.91;5010726;28;19954;-51
2023/10/21 01:35:53;;;;;;;;;;;14.80;72.20;;;10.44;100.00;93400.16;5022085;28;20489;-50
2023/10/21 01:38:19;;;;;;;;;;;14.90;72.10;;;10.44;100.00;93414.22;5019035;28;19913;-53
2023/10/21 01:40:46;;;;;;;;;;;14.90;71.80;;;10.34;100.00;93410.03;5021648;28;19908;-50
2023/10/21 01:43:12;;;;;;;;;;;14.90;71.50;;;10.35;100.00;93419.56;5027079;28;20883;-52
2023/10/21 01:45:38;;;;;;;;;;;14.90;71.30;;;10.30;100.00;93422.38;5017139;28;19916;-50
2023/10/21 01:48:06;;;;;;;;;;;14.90;71.10;;;10.27;100.00;93427.53;5017887;28;19962;-50
2023/10/21 01:50:32;;;;;;;;;;;14.90;71.00;;;10.20;100.00;93423.44;5021505;28;19921;-46
2023/10/21 01:52:58;;;;;;;;;;;14.80;70.80;;;10.15;100.00;93428.13;5023303;28;19951;-48
2023/10/21 01:55:24;;;;;;;;;;;14.80;70.80;;;10.16;100.00;93432.38;5023421;28;19952;-49
2023/10/21 01:57:51;;;;;;;;;;;14.80;70.80;;;10.13;100.00;93435.66;5020860;28;20039;-52
2023/10/21 02:00:20;;;;;;;;;;;14.70;70.70;;;10.09;100.00;93437.38;5022801;28;20339;-51
2023/10/21 02:03:04;;;;;;;;;;;14.70;70.80;;;10.10;100.00;93438.97;5020128;28;20717;-50
2023/10/21 02:05:30;;;;;;;;;;;14.70;70.80;;;10.10;100.00;93453.03;5020166;28;19920;-50
2023/10/21 02:07:55;;;;;;;;;;;14.70;70.90;;;10.16;100.00;93448.34;5018913;28;19909;-50
2023/10/21 02:10:22;;;;;;;;;;;14.70;71.00;;;10.26;100.00;93450.72;5020215;28;20094;-48
2023/10/21 02:12:47;;;;;;;;;;;14.70;71.40;;;10.37;100.00;93459.16;5018752;28;20338;-49
2023/10/21 02:15:16;;;;;;;;;;;14.80;71.70;;;10.47;100.00;93460.72;5019946;28;19909;-53
2023/10/21 02:17:44;;;;;;;;;;;14.90;72.00;;;10.57;100.00;93457.75;5020330;28;19951;-54
2023/10/21 02:20:15;;;;;;;;;;;14.90;72.10;;;10.67;100.00;93469.94;5018680;28;20239;-51
2023/10/21 02:22:41;;;;;;;;;;;15.00;72.10;;;10.75;100.00;93474.44;5019400;28;19913;-51
2023/10/21 02:25:12;;;;;;;;;;;15.10;72.20;;;10.86;100.00;93475.69;5019761;28;20291;-49
2023/10/21 02:27:40;;;;;;;;;;;15.10;72.20;;;10.91;100.00;93483.53;5019632;28;19915;-51
2023/10/21 02:30:10;;;;;;;;;;;15.20;72.30;;;10.98;100.00;93493.69;5020729;28;19909;-48
2023/10/21 02:32:37;;;;;;;;;;;15.30;72.30;;;11.03;100.00;93498.84;5019700;28;20257;-53
2023/10/21 02:35:04;;;;;;;;;;;15.30;72.30;;;11.09;100.00;93509.03;5018723;28;19916;-53
2023/10/21 02:37:30;;;;;;;;;;;15.40;72.40;;;11.15;100.00;93506.94;5018261;28;19970;-51
2023/10/21 02:39:56;;;;;;;;;;;15.40;72.40;;;11.22;100.00;93509.13;5013925;28;19920;-49
2023/10/21 02:42:21;;;;;;;;;;;15.50;72.40;;;11.21;100.00;93513.69;5022754;28;20303;-48
2023/10/21 02:44:52;;;;;;;;;;;15.50;72.70;;;11.24;100.00;93513.03;5020137;28;20020;-53
2023/10/21 02:47:17;;;;;;;;;;;15.60;72.20;;;11.23;100.00;93527.47;5022011;28;19987;-52
2023/10/21 02:49:43;;;;;;;;;;;15.60;72.00;;;11.23;100.00;93524.81;5020881;28;19921;-49
2023/10/21 02:52:09;;;;;;;;;;;15.60;71.90;;;11.25;100.00;93529.81;5019265;28;20265;-52
2023/10/21 02:54:34;;;;;;;;;;;15.70;71.80;;;11.24;100.00;93536.25;5019873;28;19908;-48
2023/10/21 02:57:00;;;;;;;;;;;15.70;71.70;;;11.28;100.00;93537.16;5020325;28;20298;-51
2023/10/21 02:59:26;;;;;;;;;;;15.70;71.70;;;11.33;100.00;93550.34;5021784;28;19969;-49
2023/10/21 03:01:52;;;;;;;;;;;15.70;71.70;;;11.38;100.00;93549.41;5020748;28;19919;-51
2023/10/21 03:04:18;;;;;;;;;;;15.70;71.70;;;11.41;100.00;93546.09;5018114;28;19912;-46
2023/10/21 03:06:44;;;;;;;;;;;15.70;71.60;;;11.45;100.00;93557.69;5019735;28;20366;-48
2023/10/21 03:09:09;;;;;;;;;;;15.80;71.60;;;11.48;100.00;93554.38;5020976;28;19924;-50
2023/10/21 03:11:35;;;;;;;;;;;15.80;71.60;;;11.50;100.00;93560.16;5020486;28;19915;-49
2023/10/21 03:14:01;;;;;;;;;;;15.80;71.50;;;11.52;100.00;93576.63;5016757;28;20425;-48
2023/10/21 03:16:27;;;;;;;;;;;15.80;71.50;;;11.56;100.00;93585.53;5018772;28;20375;-51
2023/10/21 03:18:53;;;;;;;;;;;15.90;71.50;;;11.57;100.00;93581.78;5019661;28;19913;-50
2023/10/21 03:21:19;;;;;;;;;;;15.90;71.50;;;11.64;100.00;93583.97;5017188;28;19909;-48
2023/10/21 03:23:45;;;;;;;;;;;15.90;71.50;;;11.65;100.00;93596.19;5020239;28;19909;-54
2023/10/21 03:26:11;;;;;;;;;;;15.90;71.40;;;11.70;100.00;93604.81;5019301;28;19958;-52
2023/10/21 03:28:38;;;;;;;;;;;16.00;71.50;;;11.76;100.00;93608.09;5017739;28;19908;-53
2023/10/21 03:31:05;;;;;;;;;;;16.00;71.40;;;11.75;100.00;93598.50;5021092;28;20331;-53
2023/10/21 03:33:32;;;;;;;;;;;16.00;71.30;;;11.79;100.00;93602.88;5016945;28;20031;-48
2023/10/21 03:36:01;;;;;;;;;;;16.10;71.20;;;11.81;100.00;93618.56;5021567;28;19944;-53
2023/10/21 03:38:28;;;;;;;;;;;16.10;71.20;;;11.78;100.00;93613.88;5019034;28;20425;-54
2023/10/21 03:41:15;;;;;;;;;;;16.10;71.10;;;11.78;100.00;93614.66;5019764;28;20393;-49
2023/10/21 03:43:41;;;;;;;;;;;16.10;70.90;;;11.80;100.00;93615.13;5018286;28;20410;-53
2023/10/21 03:46:14;;;;;;;;;;;16.10;70.90;;;11.80;100.00;93631.13;5019330;28;19909;-50
2023/10/21 03:48:41;;;;;;;;;;;16.10;70.80;;;11.77;100.00;93630.97;5019853;28;19920;-49
2023/10/21 03:51:11;;;;;;;;;;;16.10;70.70;;;11.77;100.00;93633.66;5019080;28;20292;-51
2023/10/21 03:53:40;;;;;;;;;;;16.10;70.60;;;11.75;100.00;93646.50;5020215;28;19944;-49
2023/10/21 03:56:07;;;;;;;;;;;16.10;70.60;;;11.78;100.00;93645.88;5018027;28;19913;-54
2023/10/21 03:58:33;;;;;;;;;;;16.10;70.50;;;11.80;100.00;93647.13;5017911;28;19917;-45
2023/10/21 04:00:59;;;;;;;;;;;16.10;70.40;;;11.81;100.00;93647.91;5018259;28;19923;-48
2023/10/21 04:03:26;;;;;;;;;;;16.10;70.40;;;11.76;100.00;93650.75;5019047;28;20372;-50
2023/10/21 04:05:53;;;;;;;;;;;16.10;70.30;;;11.79;100.00;93652.78;5017815;28;19968;-53
2023/10/21 04:08:20;;;;;;;;;;;16.10;70.30;;;11.76;100.00;93659.53;5019968;28;19912;-54
2023/10/21 04:10:46;;;;;;;;;;;16.10;70.30;;;11.76;100.00;93664.88;5018420;28;19916;-50
2023/10/21 04:13:13;;;;;;;;;;;16.10;70.20;;;11.76;100.00;93659.53;5019769;28;20532;-49
2023/10/21 04:15:39;;;;;;;;;;;16.10;70.20;;;11.77;100.00;93666.44;5018253;28;20409;-53
2023/10/21 04:18:05;;;;;;;;;;;16.10;70.10;;;11.71;100.00;93659.69;5017776;28;19921;-50
2023/10/21 04:20:31;;;;;;;;;;;16.10;70.10;;;11.68;100.00;93673.66;5019624;28;19936;-51
2023/10/21 04:22:58;;;;;;;;;;;16.10;70.00;;;11.62;100.00;93668.81;5019773;28;19915;-52
2023/10/21 04:25:31;;;;;;;;;;;16.00;70.00;;;11.63;100.00;93673.06;5018327;28;20007;-53
2023/10/21 04:27:58;;;;;;;;;;;16.00;69.90;;;11.61;100.00;93670.72;5016141;28;20009;-53
2023/10/21 04:30:25;;;;;;;;;;;16.00;69.90;;;11.61;100.00;93672.59;5014994;28;19917;-53
2023/10/21 04:32:51;;;;;;;;;;;15.90;69.80;;;11.58;100.00;93672.13;5017522;28;19917;-52
2023/10/21 04:35:18;;;;;;;;;;;15.90;69.90;;;11.55;100.00;93672.75;5016168;28;20306;-49
2023/10/21 04:37:44;;;;;;;;;;;15.90;69.90;;;11.56;100.00;93674.34;5018921;28;19919;-55
2023/10/21 04:40:11;;;;;;;;;;;15.80;69.80;;;11.53;100.00;93682.16;5020349;28;19917;-52
2023/10/21 04:42:38;;;;;;;;;;;15.90;69.90;;;11.50;100.00;93680.94;5018663;28;19916;-50
2023/10/21 04:45:08;;;;;;;;;;;15.80;69.90;;;11.48;100.00;93693.78;5019974;28;19962;-49
2023/10/21 04:47:33;;;;;;;;;;;15.80;69.90;;;11.46;100.00;93700.53;5021687;28;19956;-51
2023/10/21 04:49:59;;;;;;;;;;;15.70;69.80;;;11.46;100.00;93701.31;5023439;28;19968;-47
2023/10/21 04:52:25;;;;;;;;;;;15.70;69.80;;;11.44;100.00;93698.19;5023417;28;19931;-49
2023/10/21 04:54:51;;;;;;;;;;;15.70;70.00;;;11.43;100.00;93704.59;5020890;28;19928;-49
2023/10/21 04:57:17;;;;;;;;;;;15.70;69.90;;;11.42;100.00;93699.59;5019928;28;19917;-55
2023/10/21 04:59:43;;;;;;;;;;;15.60;69.90;;;11.39;100.00;93710.88;5021572;28;19962;-51
2023/10/21 05:02:08;;;;;;;;;;;15.60;69.90;;;11.35;100.00;93708.06;5022991;28;19987;-49
2023/10/21 05:04:35;;;;;;;;;;;15.60;70.00;;;11.32;100.00;93720.16;5024939;28;19992;-52
2023/10/21 05:07:02;;;;;;;;;;;15.60;69.90;;;11.28;100.00;93713.06;5023912;28;19966;-50
2023/10/21 05:09:29;;;;;;;;;;;15.60;70.00;;;11.23;100.00;93721.25;5022330;28;19909;-55
2023/10/21 05:11:54;;;;;;;;;;;15.60;70.00;;;11.18;100.00;93711.50;5021248;28;19943;-52
2023/10/21 05:14:20;;;;;;;;;;;15.50;69.90;;;11.13;100.00;93711.69;5022158;28;19921;-50
2023/10/21 05:16:46;;;;;;;;;;;15.50;70.00;;;11.11;100.00;93711.97;5023292;28;19924;-50
2023/10/21 05:19:12;;;;;;;;;;;15.50;70.00;;;11.09;100.00;93721.38;5022750;28;20387;-51
2023/10/21 05:21:38;;;;;;;;;;;15.50;69.90;;;11.06;100.00;93730.81;5021899;28;19909;-54
2023/10/21 05:24:04;;;;;;;;;;;15.40;69.90;;;11.04;100.00;93734.88;5021179;28;19964;-53
2023/10/21 05:26:29;;;;;;;;;;;15.40;69.90;;;11.00;100.00;93739.22;5020595;28;20355;-51
2023/10/21 05:28:57;;;;;;;;;;;15.40;69.90;;;10.98;100.00;93755.53;5020837;28;19995;-49
2023/10/21 05:31:23;;;;;;;;;;;15.40;69.90;;;10.91;100.00;93757.09;5019582;28;19909;-50
2023/10/21 05:33:49;;;;;;;;;;;15.40;69.90;;;10.89;100.00;93762.72;5022569;28;19924;-52
2023/10/21 05:36:15;;;;;;;;;;;15.30;69.80;;;10.87;100.00;93763.06;5024669;28;19994;-49
2023/10/21 05:38:41;;;;;;;;;;;15.30;69.80;;;10.84;100.00;93766.34;5020732;28;19921;-54
2023/10/21 05:41:07;;;;;;;;;;;15.30;69.90;;;10.80;100.00;93770.69;5023207;28;19939;-54
2023/10/21 05:43:32;;;;;;;;;;;15.30;69.90;;;10.80;100.00;93778.69;5020522;28;19924;-53
2023/10/21 05:46:03;;;;;;;;;;;15.30;69.90;;;10.80;100.00;93781.34;5019119;28;19956;-53
2023/10/21 05:48:29;;;;;;;;;;;15.20;70.00;;;10.73;100.00;93783.69;5022451;28;19998;-55
2023/10/21 05:51:01;;;;;;;;;;;15.20;70.00;;;10.74;100.00;93793.22;5015178;28;21234;-55
2023/10/21 05:53:27;;;;;;;;;;;15.20;70.00;;;10.76;100.00;93793.72;5020292;28;20379;-51
2023/10/21 05:55:55;;;;;;;;;;;15.20;70.10;;;10.74;100.00;93808.44;5018183;28;19923;-52
2023/10/21 05:58:21;;;;;;;;;;;15.20;70.10;;;10.74;100.00;93811.09;5019781;28;20007;-48
2023/10/21 06:00:47;;;;;;;;;;;15.20;70.20;;;10.76;100.00;93815.03;5016538;28;19946;-51
2023/10/21 06:03:13;;;;;;;;;;;15.20;70.20;;;10.76;100.00;93822.22;5018162;28;19925;-53
2023/10/21 06:05:39;;;;;;;;;;;15.20;70.20;;;10.77;100.00;93827.22;5020393;28;19920;-52
2023/10/21 06:08:07;;;;;;;;;;;15.20;70.30;;;10.81;100.00;93827.41;5019530;28;20459;-51
2023/10/21 06:10:32;;;;;;;;;;;15.20;70.30;;;10.81;100.00;93827.41;5021246;28;19916;-52
2023/10/21 06:12:58;;;;;;;;;;;15.30;70.40;;;10.81;100.00;93841.53;5019206;28;19921;-49
2023/10/21 06:15:24;;;;;;;;;;;15.30;70.40;;;10.84;100.00;93832.09;5020201;28;20227;-53
2023/10/21 06:17:49;;;;;;;;;;;15.30;70.40;;;10.84;100.00;93840.91;5020395;28;19955;-53
2023/10/21 06:20:15;;;;;;;;;;;15.30;70.30;;;10.84;100.00;93851.56;5018606;28;19909;-51
2023/10/21 06:22:41;;;;;;;;;;;15.40;70.30;;;10.87;100.00;93858.13;5022222;28;19909;-50
2023/10/21 06:25:08;;;;;;;;;;;15.40;70.40;;;10.92;100.00;93862.56;5014585;28;20475;-53
2023/10/21 06:27:33;;;;;;;;;;;15.40;70.40;;;10.95;100.00;93868.03;5019819;28;19921;-52
2023/10/21 06:29:59;;;;;;;;;;;15.40;70.30;;;10.98;100.00;93853.31;5017145;28;19920;-54
2023/10/21 06:32:26;;;;;;;;;;;15.50;70.30;;;11.01;100.00;93860.69;5021321;28;19995;-52
2023/10/21 06:34:52;;;;;;;;;;;15.50;70.30;;;11.07;100.00;93876.25;5017320;28;19989;-52
2023/10/21 06:37:17;;;;;;;;;;;15.60;70.40;;;11.17;100.00;93875.16;5018696;28;20417;-53
2023/10/21 06:39:43;;;;;;;;;;;15.60;70.40;;;11.24;100.00;93875.50;5019611;28;19912;-53
2023/10/21 06:42:09;;;;;;;;;;;15.70;70.40;;;11.33;100.00;93880.84;5019233;28;19927;-52
2023/10/21 06:44:36;;;;;;;;;;;15.70;70.40;;;11.42;100.00;93881.66;5019481;28;19954;-55
2023/10/21 06:47:02;;;;;;;;;;;15.80;70.40;;;11.46;100.00;93876.50;5020138;28;19909;-51
2023/10/21 06:49:28;;;;;;;;;;;15.80;70.40;;;11.56;100.00;93890.31;5020541;28;19979;-49
2023/10/21 06:51:55;;;;;;;;;;;15.90;70.40;;;11.61;100.00;93900.03;5019708;28;20365;-52
2023/10/21 06:54:21;;;;;;;;;;;15.90;70.30;;;11.66;100.00;93893.75;5014446;28;19916;-50
2023/10/21 06:56:47;;;;;;;;;;;16.00;70.30;;;11.68;100.00;93905.69;5019909;28;20274;-51
2023/10/21 06:59:14;;;;;;;;;;;16.00;70.20;;;11.68;100.00;93904.91;5016305;28;19920;-55
2023/10/21 07:01:40;;;;;;;;;;;16.10;70.10;;;11.63;100.00;93918.41;5016205;28;19919;-49
2023/10/21 07:04:10;;;;;;;;;;;16.10;69.90;;;11.61;100.00;93918.72;5015957;28;19940;-50
2023/10/21 07:06:40;;;;;;;;;;;16.10;69.80;;;11.58;100.00;93928.13;5022454;28;19949;-52
2023/10/21 07:09:07;;;;;;;;;;;16.10;69.80;;;11.61;100.00;93933.94;5017632;28;19915;-51
2023/10/21 07:11:33;;;;;;;;;;;16.10;69.70;;;11.62;100.00;93943.50;5021525;28;20000;-50
2023/10/21 07:13:59;;;;;;;;;;;16.10;69.70;;;11.64;100.00;93942.09;5019003;28;19928;-53
2023/10/21 07:16:25;;;;;;;;;;;16.20;69.70;;;11.64;100.00;93936.75;5016913;28;20280;-54
2023/10/21 07:18:51;;;;;;;;;;;16.20;69.70;;;11.63;100.00;93948.53;5019158;28;19928;-53
2023/10/21 07:21:17;;;;;;;;;;;16.20;70.50;;;11.60;100.00;93951.81;5020642;28;20011;-49
2023/10/21 07:23:42;;;;;;;;;;;16.20;69.60;;;11.64;100.00;93959.97;5021340;28;19915;-47
2023/10/21 07:26:08;;;;;;;;;;;16.20;69.50;;;11.64;100.00;93963.44;5021734;28;19909;-48
2023/10/21 07:28:34;;;;;;;;;;;16.30;69.50;;;11.63;100.00;93964.53;5017181;28;19908;-47
2023/10/21 07:31:00;;;;;;;;;;;16.30;69.50;;;11.65;100.00;93972.22;5019825;28;19923;-48
2023/10/21 07:33:27;;;;;;;;;;;16.30;69.50;;;11.68;100.00;93979.59;5016705;28;19913;-48
2023/10/21 07:35:53;;;;;;;;;;;16.30;69.50;;;11.69;100.00;93978.50;5019333;28;19909;-47
2023/10/21 07:38:20;;;;;;;;;;;16.30;69.40;;;11.71;100.00;93971.75;5017141;28;19923;-49
2023/10/21 07:40:47;;;;;;;;;;;16.30;69.40;;;11.65;100.00;93980.22;5021068;28;19958;-50
2023/10/21 07:43:16;;;;;;;;;;;16.40;69.40;;;11.68;100.00;93987.59;5019902;28;20054;-48
2023/10/21 07:45:42;;;;;;;;;;;16.40;69.40;;;11.70;100.00;93985.41;5019072;28;19913;-49
2023/10/21 07:48:09;;;;;;;;;;;16.50;69.40;;;11.77;100.00;93991.84;5019416;28;19909;-50
2023/10/21 07:50:34;;;;;;;;;;;16.60;69.30;;;11.86;100.00;93986.59;5018509;28;19909;-47
2023/10/21 07:53:00;;;;;;;;;;;16.70;69.30;;;11.92;100.00;93985.34;5018696;28;19916;-48
2023/10/21 07:55:26;;;;;;;;;;;16.70;69.20;;;12.01;100.00;93990.69;5018877;28;19908;-46
2023/10/21 07:57:52;;;;;;;;;;;16.80;69.20;;;12.06;100.00;93990.53;5019302;28;20395;-47
2023/10/21 08:00:18;;;;;;;;;;;16.90;69.20;;;12.15;100.00;93991.31;5019862;28;20295;-53
2023/10/21 08:02:43;;;;;;;;;;;17.00;69.20;;;12.28;100.00;93992.28;5018848;28;19957;-53
2023/10/21 08:05:10;;;;;;;;;;;17.10;69.10;;;12.41;100.00;93991.38;5021803;28;19920;-47
2023/10/21 08:07:36;;;;;;;;;;;17.30;69.20;;;12.53;100.00;93995.28;5020832;28;19912;-50
2023/10/21 08:10:05;;;;;;;;;;;17.40;69.10;;;12.65;100.00;94012.22;5017593;28;19916;-47
2023/10/21 08:12:32;;;;;;;;;;;17.60;69.00;;;12.77;100.00;94006.25;5013844;28;20003;-51
2023/10/21 08:15:04;;;;;;;;;;;17.80;68.90;;;12.85;100.00;94013.50;5036150;28;19965;-51
2023/10/21 08:17:30;;;;;;;;;;;17.90;68.70;;;12.92;100.00;94011.13;5018782;28;19916;-49
2023/10/21 08:19:56;;;;;;;;;;;18.10;68.50;;;12.98;100.00;94019.75;5019796;28;19912;-50
2023/10/21 08:22:22;;;;;;;;;;;18.30;68.30;;;13.11;100.00;94026.81;5023428;28;22353;-50
2023/10/21 08:24:48;;;;;;;;;;;18.40;68.20;;;13.20;100.00;94035.59;5021150;28;20473;-47
2023/10/21 08:27:14;;;;;;;;;;;18.40;67.80;;;13.19;100.00;94027.88;5023587;28;19913;-48
2023/10/21 08:29:41;;;;;;;;;;;18.50;67.60;;;12.97;100.00;94026.19;5023359;28;20007;-49
2023/10/21 08:32:07;;;;;;;;;;;18.60;67.40;;;13.09;100.00;94036.25;5022694;28;19909;-48
2023/10/21 08:34:36;;;;;;;;;;;18.60;67.20;;;13.31;100.00;94037.94;5019826;28;19919;-49
2023/10/21 08:37:04;;;;;;;;;;;18.70;67.20;;;13.46;100.00;94037.44;5021905;28;19912;-47
2023/10/21 08:39:30;;;;;;;;;;;18.80;67.10;;;13.39;100.00;94040.59;5021949;28;19915;-47
2023/10/21 08:41:56;;;;;;;;;;;18.80;67.00;;;13.39;100.00;94047.84;5015078;28;19913;-48
2023/10/21 08:44:23;;;;;;;;;;;18.80;66.80;;;13.51;100.00;94044.53;5021148;28;19912;-47
2023/10/21 08:46:54;;;;;;;;;;;18.80;66.80;;;13.58;100.00;94047.47;5020512;28;20467;-46
2023/10/21 08:49:21;;;;;;;;;;;18.90;66.80;;;13.57;100.00;94051.25;5018241;28;20047;-49
2023/10/21 08:51:49;;;;;;;;;;;18.90;66.60;;;13.66;100.00;94046.63;5020828;28;19924;-51
2023/10/21 08:54:17;;;;;;;;;;;19.00;66.50;;;13.78;100.00;94045.97;5019051;28;19909;-47
2023/10/21 08:56:43;;;;;;;;;;;19.00;66.40;;;13.83;100.00;94041.22;5019779;28;20392;-49
2023/10/21 08:59:09;;;;;;;;;;;19.10;66.40;;;13.89;100.00;94045.31;5022462;28;19925;-50
2023/10/21 09:01:36;;;;;;;;;;;19.30;66.30;;;13.98;100.00;94050.63;5021247;28;19966;-46
2023/10/21 09:04:03;;;;;;;;;;;19.30;66.10;;;14.04;100.00;94056.56;5021192;28;19916;-49
2023/10/21 09:06:30;;;;;;;;;;;19.50;65.90;;;14.11;99.74;94054.94;5021385;28;20409;-52
2023/10/21 09:08:56;;;;;;;;;;;19.70;65.70;;;14.23;98.62;94058.84;5020864;28;20421;-50
2023/10/21 09:11:31;;;;;;;;;;;19.80;66.20;;;14.15;98.97;94062.34;5023003;28;20286;-50
2023/10/21 09:14:00;;;;;;;;;;;19.90;65.10;;;14.20;98.88;94070.19;5021227;28;19917;-48
2023/10/21 09:16:34;;;;;;;;;;;19.90;64.80;;;14.26;98.97;94060.88;5020376;28;19908;-49
2023/10/21 09:19:08;;;;;;;;;;;19.90;64.70;;;14.33;97.47;94066.50;5020935;28;19936;-50
2023/10/21 09:21:44;;;;;;;;;;;20.00;64.60;;;14.29;96.02;94063.69;5021230;28;19955;-53
2023/10/21 09:24:19;;;;;;;;;;;20.00;64.50;;;14.31;95.65;94071.38;5031562;28;19913;-47
2023/10/21 09:26:46;;;;;;;;;;;20.00;64.40;;;14.42;96.71;94071.81;5024154;28;19971;-48
2023/10/21 09:29:20;;;;;;;;;;;20.00;64.40;;;14.49;96.55;94070.16;5023381;28;19991;-47
2023/10/21 09:31:55;;;;;;;;;;;20.10;64.50;;;14.57;98.75;94061.31;5019328;28;19985;-48
2023/10/21 09:34:29;;;;;;;;;;;20.20;64.30;;;14.54;96.85;94064.66;5019880;28;19966;-47
2023/10/21 09:37:02;;;;;;;;;;;20.30;64.20;;;14.58;94.28;94068.25;5020510;28;19939;-46
2023/10/21 09:39:35;;;;;;;;;;;20.40;63.90;;;14.69;94.04;94073.22;5019143;28;19952;-48
2023/10/21 09:42:02;;;;;;;;;;;20.50;63.70;;;14.84;93.74;94067.25;5021078;28;19909;-48
2023/10/21 09:44:29;;;;;;;;;;;20.70;63.60;;;14.88;92.13;94070.84;5021084;28;19920;-50
2023/10/21 09:46:58;;;;;;;;;;;20.80;63.40;;;14.98;94.16;94080.41;5020841;28;20410;-47
2023/10/21 09:49:27;;;;;;;;;;;20.90;63.20;;;15.10;93.78;94083.13;5000850;28;19909;-47
2023/10/21 09:52:15;;;;;;;;;;;21.00;63.00;;;15.16;91.29;94087.16;5021912;28;20382;-50
2023/10/21 09:55:07;;;;;;;;;;;21.10;62.90;;;15.12;90.10;94090.84;5020553;28;20255;-47
2023/10/21 09:57:40;;;;;;;;;;;21.10;62.60;;;15.19;91.55;94080.38;5022797;28;19913;-47
2023/10/21 10:00:08;;;;;;;;;;;21.00;62.50;;;15.17;87.62;94082.63;5022129;28;19913;-48
2023/10/21 10:02:40;;;;;;;;;;;21.10;62.50;;;15.14;90.96;94091.31;5023121;28;19917;-51
2023/10/21 10:05:08;;;;;;;;;;;20.90;62.30;;;15.17;88.55;94093.34;5017259;28;19966;-49
2023/10/21 10:07:39;;;;;;;;;;;20.90;62.30;;;15.17;87.73;94091.44;5022491;28;20004;-50
2023/10/21 10:10:12;;;;;;;;;;;20.80;62.30;;;15.20;91.28;94090.78;5020624;28;20020;-47
2023/10/21 10:13:06;;;;;;;;;;;20.70;62.30;;;15.14;90.83;94097.47;5013405;28;19912;-48
2023/10/21 10:15:41;;;;;;;;;;;20.70;62.50;;;14.95;91.95;94097.94;5018824;28;19909;-48
2023/10/21 10:18:19;;;;;;;;;;;20.50;62.40;;;14.94;94.61;94095.56;5022628;28;19923;-49
2023/10/21 10:20:50;;;;;;;;;;;20.50;62.60;;;14.97;96.96;94095.69;5019369;28;20015;-51
2023/10/21 10:23:24;;;;;;;;;;;20.40;62.70;;;14.98;97.29;94102.66;5019352;28;19924;-50
2023/10/21 10:25:54;;;;;;;;;;;20.40;62.90;;;14.97;96.80;94105.63;5033169;28;20007;-48
2023/10/21 10:28:25;;;;;;;;;;;20.20;62.90;;;14.88;95.78;94103.00;5017350;28;20537;-50
2023/10/21 10:30:53;;;;;;;;;;;20.10;62.90;;;14.85;95.90;94103.66;5020086;28;20345;-50
2023/10/21 10:33:28;;;;;;;;;;;20.10;62.90;;;14.71;92.81;94100.47;5018330;28;19912;-48
2023/10/21 10:35:56;;;;;;;;;;;20.00;62.80;;;14.68;93.74;94101.91;5020558;28;19916;-51
2023/10/21 10:38:41;;;;;;;;;;;19.90;62.80;;;14.72;96.18;94091.31;5020001;28;19917;-49
2023/10/21 10:41:11;;;;;;;;;;;19.90;62.70;;;14.62;93.99;94102.44;5028847;28;20295;-47
2023/10/21 10:43:49;;;;;;;;;;;20.00;62.80;;;14.67;95.97;94096.88;5019675;28;19916;-51
2023/10/21 10:46:22;;;;;;;;;;;19.90;62.70;;;14.66;94.13;94096.06;5017727;28;20034;-47
2023/10/21 10:48:49;;;;;;;;;;;19.90;62.80;;;14.69;96.69;94098.09;5019578;28;20554;-49
2023/10/21 10:51:15;;;;;;;;;;;19.90;62.80;;;14.70;97.37;94101.59;5023156;28;20011;-52
2023/10/21 10:53:46;;;;;;;;;;;19.90;62.80;;;14.66;95.12;94101.44;5022970;28;20349;-48
2023/10/21 10:56:18;;;;;;;;;;;19.90;62.70;;;14.53;94.75;94097.91;5020863;28;19928;-52
2023/10/21 10:58:48;;;;;;;;;;;19.90;62.60;;;14.56;95.06;94093.78;5020898;28;19962;-49
2023/10/21 11:01:25;;;;;;;;;;;20.00;62.60;;;14.65;95.90;94083.03;5022053;28;19916;-47
2023/10/21 11:04:02;;;;;;;;;;;20.00;62.50;;;14.72;95.04;94094.00;5019114;28;19917;-49
2023/10/21 11:06:35;;;;;;;;;;;20.10;62.50;;;14.83;94.48;94097.09;5021829;28;20004;-51
2023/10/21 11:09:19;;;;;;;;;;;20.20;62.40;;;14.90;98.31;94092.75;5021148;28;19919;-49
2023/10/21 11:11:47;;;;;;;;;;;20.30;62.40;;;14.93;95.61;94092.09;5020523;28;20035;-49
2023/10/21 11:14:17;;;;;;;;;;;20.40;62.30;;;14.95;93.87;94092.56;5020248;28;19917;-48